Time;durP1;ratioP1;P1;durP2;ratioP2;P2;SDS_P1;SDS_P2;PMS_P1;PMS_P2;Temp;Humidity;BMP_temperature;BMP_pressure;BME280_temperature;BME280_humidity;BME280_pressure;Samples;Min_cycle;Max_cycle;Signal;HPM_P1;HPM_P2
2023/08/31 00:00:37;;;;;;;6.72;2.70;;;12.30;99.90;;;;;;5008198;28;20042;-63
2023/08/31 00:03:03;;;;;;;8.43;2.88;;;12.30;99.90;;;;;;5014300;28;20045;-63
2023/08/31 00:05:30;;;;;;;6.38;3.17;;;12.30;99.90;;;;;;5017222;28;20038;-63
2023/08/31 00:07:56;;;;;;;8.05;3.00;;;12.40;99.90;;;;;;5017974;28;20092;-63
2023/08/31 00:10:22;;;;;;;7.45;2.90;;;12.40;99.90;;;;;;5022647;28;20038;-64
2023/08/31 00:12:49;;;;;;;8.48;3.38;;;12.40;99.90;;;;;;5006107;28;20061;-63
2023/08/31 00:15:15;;;;;;;7.95;3.60;;;12.40;99.90;;;;;;5017294;28;20038;-63
2023/08/31 00:17:40;;;;;;;8.93;3.55;;;12.40;99.90;;;;;;5005516;28;20034;-64
2023/08/31 00:20:08;;;;;;;8.63;3.30;;;12.40;99.90;;;;;;5020755;28;20038;-63
2023/08/31 00:22:33;;;;;;;11.43;3.92;;;12.40;99.90;;;;;;5011846;28;20499;-63
2023/08/31 00:24:59;;;;;;;10.13;3.20;;;12.40;99.90;;;;;;5022387;28;20034;-62
2023/08/31 00:27:24;;;;;;;10.45;3.90;;;12.40;99.90;;;;;;5022801;28;20073;-63
2023/08/31 00:29:50;;;;;;;9.27;3.17;;;12.40;99.90;;;;;;5014123;28;20033;-63
2023/08/31 00:32:18;;;;;;;10.15;3.42;;;12.50;99.90;;;;;;5011117;28;20410;-63
2023/08/31 00:34:44;;;;;;;7.93;3.88;;;12.40;99.90;;;;;;5008375;28;20053;-62
2023/08/31 00:37:09;;;;;;;7.63;3.25;;;12.50;99.90;;;;;;5017726;28;20446;-62
2023/08/31 00:39:35;;;;;;;7.70;3.30;;;12.40;99.90;;;;;;5013342;28;20033;-62
2023/08/31 00:42:01;;;;;;;8.15;3.45;;;12.40;99.90;;;;;;5023423;28;22289;-63
2023/08/31 00:44:26;;;;;;;7.57;3.58;;;12.40;99.90;;;;;;5014074;28;20381;-63
2023/08/31 00:46:52;;;;;;;9.10;3.55;;;12.40;99.90;;;;;;5022978;28;20079;-63
2023/08/31 00:49:18;;;;;;;9.10;3.30;;;12.40;99.90;;;;;;5012945;28;20037;-63
2023/08/31 00:51:50;;;;;;;6.40;3.17;;;12.40;99.90;;;;;;5008199;28;20536;-63
2023/08/31 00:54:18;;;;;;;7.93;2.90;;;12.40;99.90;;;;;;5012231;28;20034;-63
2023/08/31 00:56:43;;;;;;;7.43;2.90;;;12.40;99.90;;;;;;5023852;28;20053;-63
2023/08/31 00:59:09;;;;;;;9.02;2.67;;;12.30;99.90;;;;;;5023191;28;20741;-63
2023/08/31 01:02:03;;;;;;;5.45;2.22;;;12.40;99.90;;;;;;5007253;28;20038;-63
2023/08/31 01:04:53;;;;;;;5.90;2.70;;;12.40;99.90;;;;;;5021128;28;20034;-62
2023/08/31 01:07:48;;;;;;;6.18;2.70;;;12.40;99.90;;;;;;5017680;28;20073;-62
2023/08/31 01:10:34;;;;;;;7.82;3.20;;;12.40;99.90;;;;;;5023825;28;20049;-63
2023/08/31 01:13:10;;;;;;;6.88;3.20;;;12.30;99.90;;;;;;5023699;28;20073;-63
2023/08/31 01:15:37;;;;;;;11.35;3.50;;;12.30;99.90;;;;;;5020410;28;20042;-63
2023/08/31 01:18:05;;;;;;;7.72;3.60;;;12.30;99.90;;;;;;5025244;28;20463;-63
2023/08/31 01:21:00;;;;;;;7.55;4.13;;;12.30;99.90;;;;;;5021616;28;20044;-63
2023/08/31 01:23:34;;;;;;;9.43;4.32;;;12.30;99.90;;;;;;5018845;28;20073;-63
2023/08/31 01:26:00;;;;;;;10.90;4.68;;;12.30;99.90;;;;;;5011508;28;20404;-63
2023/08/31 01:28:26;;;;;;;7.70;4.78;;;12.30;99.90;;;;;;5018390;28;20113;-63
2023/08/31 01:30:52;;;;;;;6.80;4.25;;;12.20;99.90;;;;;;5020021;28;20439;-63
2023/08/31 01:33:17;;;;;;;8.27;3.95;;;12.20;99.90;;;;;;5009889;28;20042;-62
2023/08/31 01:35:48;;;;;;;8.48;4.45;;;12.30;99.90;;;;;;5017193;28;20037;-63
2023/08/31 01:38:18;;;;;;;8.38;4.45;;;12.20;99.90;;;;;;5013910;28;20084;-62
2023/08/31 01:40:52;;;;;;;8.90;4.47;;;12.20;99.90;;;;;;5015327;28;20046;-62
2023/08/31 01:43:19;;;;;;;9.48;4.85;;;12.20;99.90;;;;;;5025995;28;20463;-62
2023/08/31 01:45:46;;;;;;;7.85;4.25;;;12.20;99.90;;;;;;5014346;28;20366;-62
2023/08/31 01:48:14;;;;;;;9.35;4.25;;;12.20;99.90;;;;;;5017257;28;20488;-63
2023/08/31 01:50:40;;;;;;;6.65;3.85;;;12.10;99.90;;;;;;5025394;28;20038;-63
2023/08/31 01:53:06;;;;;;;6.90;4.18;;;12.10;99.90;;;;;;5030388;28;20045;-62
2023/08/31 01:55:32;;;;;;;6.93;3.58;;;12.10;99.90;;;;;;5011372;28;20113;-62
2023/08/31 01:57:58;;;;;;;6.75;3.42;;;12.10;99.90;;;;;;5017379;28;20096;-63
2023/08/31 02:00:25;;;;;;;6.63;3.65;;;12.00;99.90;;;;;;5011704;28;20046;-63
2023/08/31 02:02:51;;;;;;;9.70;3.83;;;12.00;99.90;;;;;;5014983;28;20033;-62
2023/08/31 02:05:16;;;;;;;5.78;3.50;;;12.00;99.90;;;;;;5011899;28;20045;-63
2023/08/31 02:07:42;;;;;;;6.75;3.72;;;12.00;99.90;;;;;;5011074;28;20084;-62
2023/08/31 02:10:08;;;;;;;8.00;3.67;;;12.00;99.90;;;;;;5017760;28;20044;-63
2023/08/31 02:12:36;;;;;;;7.68;3.88;;;12.00;99.90;;;;;;5012163;28;20451;-63
2023/08/31 02:15:02;;;;;;;7.97;3.60;;;12.00;99.90;;;;;;5005590;28;20081;-63
2023/08/31 02:17:27;;;;;;;5.97;3.03;;;12.00;99.90;;;;;;5017706;28;20049;-62
2023/08/31 02:19:53;;;;;;;5.25;3.35;;;11.90;99.90;;;;;;5015161;28;20037;-63
2023/08/31 02:22:19;;;;;;;6.30;3.45;;;11.90;99.90;;;;;;5010080;28;20137;-63
2023/08/31 02:24:45;;;;;;;7.95;3.78;;;11.90;99.90;;;;;;5010181;28;20132;-62
2023/08/31 02:27:11;;;;;;;4.55;3.03;;;11.90;99.90;;;;;;5013363;28;20114;-63
2023/08/31 02:29:36;;;;;;;5.72;3.00;;;11.80;99.90;;;;;;5015853;28;20480;-63
2023/08/31 02:32:05;;;;;;;5.88;3.00;;;11.80;99.90;;;;;;5012655;28;20034;-62
2023/08/31 02:34:31;;;;;;;7.00;3.50;;;11.80;99.90;;;;;;5011588;28;20038;-62
2023/08/31 02:36:56;;;;;;;6.13;3.28;;;11.80;99.90;;;;;;5025793;22;20067;-63
2023/08/31 02:39:23;;;;;;;6.72;3.10;;;11.70;99.90;;;;;;5028250;28;20049;-64
2023/08/31 02:41:48;;;;;;;8.05;2.83;;;11.70;99.90;;;;;;5029642;28;20360;-64
2023/08/31 02:44:14;;;;;;;5.20;3.08;;;11.70;99.90;;;;;;5028573;28;20063;-64
2023/08/31 02:46:40;;;;;;;5.38;3.33;;;11.60;99.90;;;;;;5025186;28;20041;-64
2023/08/31 02:49:05;;;;;;;6.95;3.53;;;11.60;99.90;;;;;;5030512;28;20518;-64
2023/08/31 02:51:31;;;;;;;6.30;3.90;;;11.60;99.90;;;;;;5029706;28;20115;-64
2023/08/31 02:53:56;;;;;;;5.28;3.28;;;11.60;99.90;;;;;;5020732;28;20196;-63
2023/08/31 02:56:22;;;;;;;7.95;3.47;;;11.50;99.90;;;;;;5027701;28;20102;-63
2023/08/31 02:58:47;;;;;;;5.13;3.15;;;11.50;99.90;;;;;;5024636;28;20030;-63
2023/08/31 03:01:14;;;;;;;6.30;3.20;;;11.50;99.90;;;;;;5027016;28;20041;-64
2023/08/31 03:03:41;;;;;;;4.85;3.20;;;11.50;99.90;;;;;;5027763;28;20046;-64
2023/08/31 03:06:10;;;;;;;5.28;3.33;;;11.50;99.90;;;;;;5018912;28;20038;-64
2023/08/31 03:08:36;;;;;;;6.15;3.40;;;11.50;99.90;;;;;;5029205;28;20510;-63
2023/08/31 03:11:06;;;;;;;4.57;3.25;;;11.50;99.90;;;;;;5019394;28;20073;-63
2023/08/31 03:13:32;;;;;;;5.43;3.55;;;11.50;99.90;;;;;;5027825;28;20056;-63
2023/08/31 03:15:59;;;;;;;5.60;3.85;;;11.50;99.90;;;;;;5029454;28;20041;-63
2023/08/31 03:18:25;;;;;;;7.18;3.80;;;11.50;99.90;;;;;;5029022;28;20045;-63
2023/08/31 03:20:50;;;;;;;8.07;4.13;;;11.50;99.90;;;;;;5021808;28;20182;-63
2023/08/31 03:23:16;;;;;;;5.85;3.75;;;11.50;99.90;;;;;;5030215;28;20403;-64
2023/08/31 03:25:42;;;;;;;7.00;4.05;;;11.50;99.90;;;;;;5021710;28;20030;-64
2023/08/31 03:28:08;;;;;;;7.15;4.38;;;11.50;99.90;;;;;;5022512;28;20037;-64
2023/08/31 03:30:33;;;;;;;6.70;4.28;;;11.50;99.90;;;;;;5029963;28;20045;-64
2023/08/31 03:32:59;;;;;;;6.85;4.28;;;11.40;99.90;;;;;;5029736;28;20038;-63
2023/08/31 03:35:26;;;;;;;6.22;4.38;;;11.40;99.90;;;;;;5027056;28;20046;-63
2023/08/31 03:37:53;;;;;;;6.22;4.50;;;11.40;99.90;;;;;;5020807;28;20045;-64
2023/08/31 03:40:19;;;;;;;6.55;4.68;;;11.40;99.90;;;;;;5029873;28;20037;-63
2023/08/31 03:42:44;;;;;;;6.95;4.82;;;11.40;99.90;;;;;;5028952;28;20042;-64
2023/08/31 03:45:10;;;;;;;5.70;3.92;;;11.40;99.90;;;;;;5026866;28;20113;-63
2023/08/31 03:47:36;;;;;;;7.80;4.40;;;11.40;99.90;;;;;;5029361;28;20084;-63
2023/08/31 03:50:02;;;;;;;6.22;3.90;;;11.40;99.90;;;;;;5028289;28;20065;-64
2023/08/31 03:52:28;;;;;;;7.65;3.97;;;11.40;99.90;;;;;;5025826;28;20136;-64
2023/08/31 03:54:54;;;;;;;8.20;3.90;;;11.40;99.90;;;;;;5028077;28;20376;-64
2023/08/31 03:57:20;;;;;;;4.95;3.80;;;11.40;99.90;;;;;;5028739;28;20040;-63
2023/08/31 03:59:45;;;;;;;7.28;3.30;;;11.40;99.90;;;;;;5026063;28;20045;-63
2023/08/31 04:02:11;;;;;;;6.97;3.40;;;11.40;99.90;;;;;;5028567;28;20061;-63
2023/08/31 04:04:37;;;;;;;6.18;3.78;;;11.50;99.90;;;;;;5029573;28;20038;-64
2023/08/31 04:07:02;;;;;;;7.78;3.60;;;11.50;99.90;;;;;;5027342;28;20038;-64
2023/08/31 04:09:28;;;;;;;5.88;3.40;;;11.50;99.90;;;;;;5027997;28;20048;-63
2023/08/31 04:11:53;;;;;;;4.90;3.15;;;11.50;99.90;;;;;;5028845;28;20037;-64
2023/08/31 04:14:19;;;;;;;5.18;3.58;;;11.50;99.90;;;;;;5029977;28;20129;-64
2023/08/31 04:16:47;;;;;;;5.40;3.33;;;11.40;99.90;;;;;;5027716;28;20700;-64
2023/08/31 04:19:12;;;;;;;7.35;3.78;;;11.50;99.90;;;;;;5027021;28;20046;-64
2023/08/31 04:21:38;;;;;;;7.18;3.38;;;11.40;99.90;;;;;;5026624;28;20037;-64
2023/08/31 04:24:05;;;;;;;8.65;3.40;;;11.50;99.90;;;;;;5027703;28;20033;-63
2023/08/31 04:26:31;;;;;;;7.07;3.40;;;11.50;99.90;;;;;;5029915;28;20440;-64
2023/08/31 04:28:57;;;;;;;6.03;3.50;;;11.50;99.90;;;;;;5028623;28;20064;-64
2023/08/31 04:31:22;;;;;;;7.22;3.30;;;11.50;99.90;;;;;;5029198;28;20106;-63
2023/08/31 04:33:48;;;;;;;6.00;3.30;;;11.50;99.90;;;;;;5027028;28;20037;-64
2023/08/31 04:36:13;;;;;;;5.40;3.38;;;11.50;99.90;;;;;;5029795;28;20103;-64
2023/08/31 04:38:39;;;;;;;5.65;3.42;;;11.60;99.90;;;;;;5027795;28;20045;-63
2023/08/31 04:41:05;;;;;;;5.65;3.40;;;11.60;99.90;;;;;;5024177;28;20111;-63
2023/08/31 04:43:31;;;;;;;6.60;3.65;;;11.60;99.90;;;;;;5029338;28;20487;-64
2023/08/31 04:45:57;;;;;;;5.38;3.47;;;11.60;99.90;;;;;;5029367;28;20034;-64
2023/08/31 04:48:22;;;;;;;7.28;3.80;;;11.60;99.90;;;;;;5025613;28;20069;-63
2023/08/31 04:50:48;;;;;;;7.53;4.28;;;11.60;99.90;;;;;;5030787;28;20106;-64
2023/08/31 04:53:14;;;;;;;7.45;4.00;;;11.60;99.90;;;;;;5033297;28;20060;-64
2023/08/31 04:55:39;;;;;;;7.78;4.22;;;11.60;99.90;;;;;;5032815;28;20037;-64
2023/08/31 04:58:05;;;;;;;9.27;4.65;;;11.70;99.90;;;;;;5032834;28;20037;-63
2023/08/31 05:00:31;;;;;;;9.20;4.57;;;11.70;99.90;;;;;;5032572;28;20037;-63
2023/08/31 05:02:57;;;;;;;7.57;5.20;;;11.70;99.90;;;;;;5032362;28;20415;-64
2023/08/31 05:05:23;;;;;;;8.10;4.90;;;11.70;99.90;;;;;;5024383;28;20040;-64
2023/08/31 05:07:48;;;;;;;7.38;4.70;;;11.80;99.90;;;;;;5029679;28;20057;-64
2023/08/31 05:10:14;;;;;;;9.20;5.07;;;11.80;99.90;;;;;;5032316;28;20484;-64
2023/08/31 05:12:40;;;;;;;6.75;5.47;;;11.80;99.90;;;;;;5029374;28;20034;-64
2023/08/31 05:15:06;;;;;;;9.45;5.53;;;11.80;99.90;;;;;;5027963;28;20411;-63
2023/08/31 05:17:32;;;;;;;10.95;5.03;;;11.80;99.90;;;;;;5032523;28;20037;-63
2023/08/31 05:19:57;;;;;;;7.60;5.18;;;11.80;99.90;;;;;;5030082;28;20075;-62
2023/08/31 05:22:23;;;;;;;9.80;5.10;;;11.80;99.90;;;;;;5028459;28;20115;-64
2023/08/31 05:24:49;;;;;;;9.82;4.38;;;11.80;99.90;;;;;;5030804;28;20073;-64
2023/08/31 05:27:14;;;;;;;7.93;4.85;;;11.80;99.90;;;;;;5027234;28;20581;-64
2023/08/31 05:29:40;;;;;;;11.07;5.20;;;11.80;99.90;;;;;;5024422;28;20048;-63
2023/08/31 05:32:06;;;;;;;8.00;5.20;;;11.80;99.90;;;;;;5031816;28;20037;-64
2023/08/31 05:34:34;;;;;;;9.25;5.45;;;11.80;99.90;;;;;;5026728;28;20033;-64
2023/08/31 05:37:00;;;;;;;10.38;5.15;;;11.90;99.90;;;;;;5030538;28;20411;-63
2023/08/31 05:39:25;;;;;;;10.43;4.90;;;11.90;99.90;;;;;;5024819;28;20045;-63
2023/08/31 05:41:51;;;;;;;10.57;5.03;;;11.90;99.90;;;;;;5029269;28;20041;-64
2023/08/31 05:44:17;;;;;;;9.25;4.68;;;11.90;99.90;;;;;;5030365;28;20101;-64
2023/08/31 05:46:42;;;;;;;7.80;4.50;;;11.90;99.90;;;;;;5027082;28;20068;-64
2023/08/31 05:49:08;;;;;;;7.05;4.65;;;12.00;99.90;;;;;;5031047;28;20044;-64
2023/08/31 05:51:34;;;;;;;7.25;4.43;;;12.00;99.90;;;;;;5031622;28;20503;-64
2023/08/31 05:54:00;;;;;;;6.70;4.32;;;12.10;99.90;;;;;;5031447;28;20033;-64
2023/08/31 05:56:26;;;;;;;8.48;5.13;;;12.10;99.90;;;;;;5027167;28;20048;-63
2023/08/31 05:58:54;;;;;;;8.25;5.47;;;12.20;99.90;;;;;;5025248;28;20117;-64
2023/08/31 06:01:22;;;;;;;10.23;5.20;;;12.20;99.90;;;;;;5027435;28;20376;-64
2023/08/31 06:03:48;;;;;;;8.98;4.95;;;12.30;99.90;;;;;;5022089;28;20052;-63
2023/08/31 06:06:14;;;;;;;10.85;4.95;;;12.30;99.90;;;;;;5026082;28;20067;-64
2023/08/31 06:08:39;;;;;;;7.07;5.05;;;12.40;99.90;;;;;;5027980;28;20368;-63
2023/08/31 06:11:05;;;;;;;10.10;5.20;;;12.40;99.90;;;;;;5019475;28;20048;-64
2023/08/31 06:13:31;;;;;;;9.38;5.30;;;12.40;99.90;;;;;;5024602;28;20396;-64
2023/08/31 06:15:57;;;;;;;10.52;4.75;;;12.40;99.90;;;;;;5022925;28;20169;-64
2023/08/31 06:18:23;;;;;;;8.55;4.90;;;12.50;99.90;;;;;;5027403;28;20034;-63
2023/08/31 06:20:49;;;;;;;7.22;4.70;;;12.60;99.90;;;;;;5028899;28;20041;-64
2023/08/31 06:23:15;;;;;;;10.07;4.97;;;12.70;99.90;;;;;;5026072;28;20418;-64
2023/08/31 06:25:40;;;;;;;11.73;4.82;;;12.70;99.90;;;;;;5028747;28;20025;-65
2023/08/31 06:28:08;;;;;;;10.65;4.50;;;12.80;99.90;;;;;;5030372;28;20056;-64
2023/08/31 06:30:35;;;;;;;9.80;4.30;;;12.80;99.90;;;;;;5030566;28;20052;-64
2023/08/31 06:33:00;;;;;;;6.85;4.13;;;12.80;99.90;;;;;;5031344;28;20411;-64
2023/08/31 06:35:26;;;;;;;9.95;4.00;;;12.80;99.90;;;;;;5029064;28;20116;-64
2023/08/31 06:37:52;;;;;;;11.00;3.97;;;12.90;99.90;;;;;;5030961;28;20040;-63
2023/08/31 06:40:17;;;;;;;8.23;4.05;;;12.90;99.90;;;;;;5026162;28;20041;-64
2023/08/31 06:42:43;;;;;;;9.40;4.47;;;12.90;99.90;;;;;;5025799;28;20053;-64
2023/08/31 06:45:09;;;;;;;7.13;3.97;;;13.00;99.90;;;;;;5028390;28;20039;-64
2023/08/31 06:47:37;;;;;;;11.65;3.80;;;13.00;99.90;;;;;;5029871;28;20087;-64
2023/08/31 06:50:03;;;;;;;10.30;3.50;;;13.00;99.90;;;;;;5029331;28;20048;-64
2023/08/31 06:52:29;;;;;;;8.98;3.55;;;13.00;99.90;;;;;;5021526;28;20037;-64
2023/08/31 06:54:56;;;;;;;5.60;3.40;;;12.80;99.90;;;;;;5026660;28;20055;-64
2023/08/31 06:57:26;;;;;;;13.98;3.28;;;13.00;99.90;;;;;;5029711;28;20060;-64
2023/08/31 06:59:52;;;;;;;7.88;3.10;;;13.10;99.90;;;;;;5028464;28;20117;-64
2023/08/31 07:02:19;;;;;;;10.55;3.30;;;13.10;99.90;;;;;;5030232;28;20132;-64
2023/08/31 07:04:45;;;;;;;9.07;2.88;;;13.10;99.90;;;;;;5029968;28;20029;-64
2023/08/31 07:07:13;;;;;;;6.82;3.22;;;13.20;99.90;;;;;;5029336;28;20368;-64
2023/08/31 07:09:43;;;;;;;7.47;3.20;;;13.30;99.90;;;;;;5028500;28;20034;-64
2023/08/31 07:12:09;;;;;;;9.27;3.33;;;13.40;99.90;;;;;;5031355;28;20080;-63
2023/08/31 07:14:35;;;;;;;5.78;2.90;;;13.40;99.90;;;;;;5029734;28;20049;-64
2023/08/31 07:17:01;;;;;;;6.35;2.75;;;13.50;99.90;;;;;;5023032;28;20037;-64
2023/08/31 07:19:27;;;;;;;7.18;2.80;;;13.40;99.90;;;;;;5020482;28;20124;-65
2023/08/31 07:21:54;;;;;;;10.10;3.13;;;13.50;99.90;;;;;;5029205;28;20113;-64
2023/08/31 07:24:21;;;;;;;7.93;3.03;;;13.50;99.90;;;;;;5029937;28;20482;-65
2023/08/31 07:26:47;;;;;;;7.80;3.08;;;13.50;99.90;;;;;;5029010;28;20113;-64
2023/08/31 07:29:13;;;;;;;6.38;2.70;;;13.60;99.90;;;;;;5029262;28;20116;-64
2023/08/31 07:31:38;;;;;;;8.65;2.63;;;13.60;99.90;;;;;;5021551;28;20042;-64
2023/08/31 07:34:04;;;;;;;4.00;2.38;;;13.70;99.90;;;;;;5024262;28;20603;-64
2023/08/31 07:36:30;;;;;;;6.20;1.80;;;13.70;99.90;;;;;;5024809;28;20037;-64
2023/08/31 07:38:55;;;;;;;7.57;2.20;;;13.80;99.90;;;;;;5025408;28;20044;-65
2023/08/31 07:41:21;;;;;;;5.55;2.15;;;13.80;99.90;;;;;;5025617;28;20040;-65
2023/08/31 07:43:46;;;;;;;5.78;1.80;;;13.90;99.90;;;;;;5026912;28;20138;-65
2023/08/31 07:46:12;;;;;;;3.78;1.70;;;14.00;99.90;;;;;;5028222;28;20052;-65
2023/08/31 07:48:38;;;;;;;3.90;1.73;;;14.00;99.90;;;;;;5026711;28;20037;-66
2023/08/31 07:51:04;;;;;;;4.30;1.73;;;14.10;99.90;;;;;;5024250;28;20156;-65
2023/08/31 07:53:30;;;;;;;4.80;1.40;;;14.10;99.90;;;;;;5021524;28;20116;-65
2023/08/31 07:55:58;;;;;;;3.30;1.40;;;14.20;99.90;;;;;;5029448;28;20040;-65
2023/08/31 07:58:25;;;;;;;5.18;1.50;;;14.30;99.90;;;;;;5029103;28;20120;-65
2023/08/31 08:00:55;;;;;;;3.35;1.40;;;14.40;99.90;;;;;;5023871;28;20560;-65
2023/08/31 08:03:22;;;;;;;4.65;1.30;;;14.50;99.90;;;;;;5018167;28;20072;-65
2023/08/31 08:05:48;;;;;;;5.50;1.30;;;14.50;99.90;;;;;;5029591;28;20037;-65
2023/08/31 08:08:13;;;;;;;2.50;1.30;;;14.60;99.90;;;;;;5026272;28;20079;-65
2023/08/31 08:10:39;;;;;;;5.88;1.52;;;14.60;99.90;;;;;;5029695;28;20395;-65
2023/08/31 08:13:04;;;;;;;5.72;1.30;;;14.80;99.90;;;;;;5029177;28;20092;-65
2023/08/31 08:15:31;;;;;;;3.67;1.10;;;14.80;99.90;;;;;;5029562;28;20076;-65
2023/08/31 08:17:59;;;;;;;2.38;1.20;;;15.00;99.90;;;;;;5028184;28;20101;-65
2023/08/31 08:20:27;;;;;;;4.22;1.23;;;15.00;99.90;;;;;;5032167;28;20034;-66
2023/08/31 08:22:52;;;;;;;4.82;1.20;;;15.10;99.90;;;;;;5033953;28;20037;-65
2023/08/31 08:25:21;;;;;;;2.55;0.85;;;15.00;99.90;;;;;;5033176;28;20120;-65
2023/08/31 08:27:47;;;;;;;3.80;1.10;;;15.00;99.90;;;;;;5033398;28;20033;-65
2023/08/31 08:30:15;;;;;;;1.60;1.02;;;15.00;99.90;;;;;;5031179;28;20121;-65
2023/08/31 08:32:41;;;;;;;2.90;1.20;;;15.00;99.90;;;;;;5032314;28;20079;-65
2023/08/31 08:35:07;;;;;;;3.28;1.13;;;14.90;99.90;;;;;;5033238;28;20128;-65
2023/08/31 08:37:33;;;;;;;3.15;1.10;;;15.00;99.90;;;;;;5051702;22;20129;-78
2023/08/31 08:39:58;;;;;;;3.17;1.20;;;15.00;99.90;;;;;;5014093;28;20068;-78
2023/08/31 08:42:25;;;;;;;2.17;1.10;;;15.10;99.90;;;;;;5013355;28;20077;-78
2023/08/31 08:44:51;;;;;;;10.30;1.00;;;15.20;99.90;;;;;;5005248;28;20513;-78
2023/08/31 08:47:17;;;;;;;4.75;1.23;;;15.40;99.90;;;;;;5013075;28;20052;-78
2023/08/31 08:49:44;;;;;;;3.38;1.40;;;15.50;99.90;;;;;;5014225;28;20038;-78
2023/08/31 08:52:11;;;;;;;4.53;1.08;;;15.60;99.90;;;;;;5013784;28;20045;-77
2023/08/31 08:54:38;;;;;;;4.80;0.90;;;15.70;99.90;;;;;;5012917;28;20128;-78
2023/08/31 08:57:04;;;;;;;4.00;1.42;;;15.60;99.90;;;;;;5012959;28;20137;-76
2023/08/31 08:59:33;;;;;;;4.88;1.08;;;15.60;99.90;;;;;;5012967;28;20062;-76
2023/08/31 09:01:59;;;;;;;2.60;1.00;;;15.70;99.90;;;;;;5013288;28;20571;-77
2023/08/31 09:04:24;;;;;;;2.05;0.90;;;15.90;99.90;;;;;;5005634;28;20042;-78
2023/08/31 09:06:53;;;;;;;4.55;1.00;;;16.10;99.90;;;;;;5013196;28;20041;-77
2023/08/31 09:09:19;;;;;;;3.75;1.00;;;16.10;99.90;;;;;;5012832;28;20045;-77
2023/08/31 09:11:45;;;;;;;2.15;1.08;;;16.20;99.90;;;;;;5013412;28;20048;-78
2023/08/31 09:14:19;;;;;;;2.25;1.10;;;16.30;99.90;;;;;;5012812;28;20528;-78
2023/08/31 09:16:49;;;;;;;3.50;1.00;;;16.60;99.90;;;;;;4995931;28;20061;-77
2023/08/31 09:19:20;;;;;;;4.22;1.30;;;16.90;99.90;;;;;;5013040;28;20038;-78
2023/08/31 09:21:55;;;;;;;4.00;1.20;;;17.20;99.90;;;;;;5010120;28;20712;-78
2023/08/31 09:24:22;;;;;;;3.60;1.00;;;17.30;99.90;;;;;;5008909;28;20092;-78
2023/08/31 09:26:55;;;;;;;2.10;1.08;;;17.40;99.90;;;;;;5012574;28;20037;-78
2023/08/31 09:29:21;;;;;;;4.55;1.58;;;17.40;99.90;;;;;;5012730;28;20057;-77
2023/08/31 09:31:47;;;;;;;6.70;1.60;;;17.40;99.90;;;;;;5010249;28;20037;-77
2023/08/31 09:34:17;;;;;;;3.13;0.93;;;17.60;99.90;;;;;;5007625;28;20056;-76
2023/08/31 09:36:44;;;;;;;3.45;1.15;;;17.50;99.90;;;;;;5012363;28;20056;-77
2023/08/31 09:39:11;;;;;;;4.18;1.25;;;17.50;99.90;;;;;;5007024;28;20042;-78
2023/08/31 09:41:53;;;;;;;3.10;1.15;;;17.60;99.90;;;;;;5012637;28;20057;-78
2023/08/31 09:44:20;;;;;;;1.65;0.90;;;17.80;99.90;;;;;;5008310;28;20046;-77
2023/08/31 09:46:46;;;;;;;3.78;1.23;;;17.90;99.90;;;;;;5012725;28;20405;-78
2023/08/31 09:49:14;;;;;;;3.42;1.50;;;18.00;99.90;;;;;;5011953;28;20042;-78
2023/08/31 09:51:44;;;;;;;4.38;1.30;;;18.10;99.90;;;;;;5012189;28;20054;-78
2023/08/31 09:54:16;;;;;;;5.13;1.50;;;18.30;99.90;;;;;;5012284;28;20042;-78
2023/08/31 09:56:44;;;;;;;3.80;1.25;;;18.50;99.90;;;;;;5011950;28;20502;-78
2023/08/31 09:59:14;;;;;;;5.53;1.30;;;18.50;99.90;;;;;;5011549;28;20045;-77
2023/08/31 10:01:41;;;;;;;3.63;1.13;;;18.40;99.90;;;;;;4995151;28;20892;-78
2023/08/31 10:04:08;;;;;;;6.03;1.70;;;18.40;99.90;;;;;;5011681;28;20081;-78
2023/08/31 10:06:39;;;;;;;2.42;1.20;;;18.60;99.90;;;;;;5007906;28;20046;-78
2023/08/31 10:09:05;;;;;;;2.88;1.10;;;18.80;99.90;;;;;;5013396;28;20049;-78
2023/08/31 10:11:31;;;;;;;4.43;1.58;;;18.80;99.90;;;;;;5010599;28;20466;-78
2023/08/31 10:13:58;;;;;;;5.28;1.80;;;18.60;99.90;;;;;;5017595;28;20178;-78
2023/08/31 10:16:27;;;;;;;9.32;1.90;;;18.20;99.90;;;;;;5015927;28;20049;-78
2023/08/31 10:18:54;;;;;;;6.85;1.42;;;17.80;99.90;;;;;;5004822;28;20524;-78
2023/08/31 10:21:20;;;;;;;4.32;1.65;;;17.50;99.90;;;;;;5015522;28;20413;-78
2023/08/31 10:23:46;;;;;;;6.03;1.55;;;17.20;99.90;;;;;;5017792;28;20441;-78
2023/08/31 10:26:22;;;;;;;4.18;1.40;;;16.90;99.90;;;;;;5016771;28;20034;-78
2023/08/31 10:28:47;;;;;;;5.35;1.65;;;16.60;99.90;;;;;;5011552;28;20516;-79
2023/08/31 10:31:17;;;;;;;5.30;1.35;;;16.40;99.90;;;;;;5008980;28;20045;-79
2023/08/31 10:33:45;;;;;;;5.32;1.40;;;16.30;99.90;;;;;;5012598;28;20366;-79
2023/08/31 10:36:18;;;;;;;6.15;1.55;;;16.40;99.90;;;;;;5011577;28;20052;-78
2023/08/31 10:38:56;;;;;;;6.63;1.50;;;16.80;99.90;;;;;;5005193;28;20188;-78
2023/08/31 10:41:22;;;;;;;6.55;1.73;;;17.30;99.90;;;;;;5009244;28;20041;-78
2023/08/31 10:43:52;;;;;;;3.42;1.25;;;17.70;99.90;;;;;;5008700;28;20045;-78
2023/08/31 10:46:27;;;;;;;3.80;1.17;;;18.00;99.90;;;;;;5007633;28;20050;-78
2023/08/31 10:48:57;;;;;;;3.75;1.10;;;18.10;99.90;;;;;;5007407;28;20108;-78
2023/08/31 10:51:31;;;;;;;4.82;1.17;;;18.10;99.90;;;;;;5011982;28;20046;-77
2023/08/31 10:54:26;;;;;;;6.47;1.63;;;18.00;99.90;;;;;;5004164;28;20046;-76
2023/08/31 10:57:00;;;;;;;2.22;1.15;;;18.00;99.90;;;;;;5003416;28;20077;-78
2023/08/31 10:59:40;;;;;;;3.33;1.10;;;17.90;99.90;;;;;;5011079;28;20117;-75
2023/08/31 11:02:06;;;;;;;4.03;1.05;;;17.70;99.90;;;;;;5011192;28;20050;-77
2023/08/31 11:04:52;;;;;;;4.20;1.10;;;17.60;99.90;;;;;;5011153;28;20046;-78
2023/08/31 11:07:19;;;;;;;3.55;1.25;;;17.40;99.90;;;;;;5010727;28;20050;-78
2023/08/31 11:09:46;;;;;;;2.92;1.17;;;17.30;99.90;;;;;;5009696;28;20561;-78
2023/08/31 11:12:13;;;;;;;5.22;1.40;;;17.10;99.90;;;;;;4994606;28;20060;-77
2023/08/31 11:14:39;;;;;;;3.38;1.00;;;17.10;99.90;;;;;;5005831;28;20050;-78
2023/08/31 11:17:05;;;;;;;5.10;1.23;;;16.90;99.90;;;;;;5004054;28;20045;-78
2023/08/31 11:19:32;;;;;;;2.60;1.23;;;16.80;99.90;;;;;;5008583;28;20422;-77
2023/08/31 11:22:02;;;;;;;5.05;1.20;;;16.70;99.90;;;;;;5004726;28;20041;-78
2023/08/31 11:24:29;;;;;;;5.78;1.67;;;16.60;99.90;;;;;;5011315;28;20069;-78
2023/08/31 11:26:55;;;;;;;3.72;1.10;;;16.40;99.90;;;;;;5009838;28;20156;-79
2023/08/31 11:29:21;;;;;;;4.07;1.08;;;16.20;99.90;;;;;;5010687;28;20506;-78
2023/08/31 11:31:46;;;;;;;3.35;1.00;;;16.00;99.90;;;;;;5010999;28;20069;-77
2023/08/31 11:34:14;;;;;;;2.45;1.17;;;15.80;99.90;;;;;;5009413;28;20038;-75
2023/08/31 11:36:41;;;;;;;5.45;0.80;;;15.60;99.90;;;;;;5006684;28;20042;-77
2023/08/31 11:39:08;;;;;;;2.67;0.57;;;15.30;99.90;;;;;;4993380;28;20045;-77
2023/08/31 11:41:36;;;;;;;3.33;0.70;;;15.20;99.90;;;;;;5010069;28;20081;-77
2023/08/31 11:44:03;;;;;;;2.67;0.80;;;15.10;99.90;;;;;;5005920;28;20080;-77
2023/08/31 11:46:30;;;;;;;2.55;0.82;;;15.00;99.90;;;;;;5007452;28;20428;-77
2023/08/31 11:48:55;;;;;;;2.05;0.60;;;15.00;99.90;;;;;;5009656;28;20073;-77
2023/08/31 11:51:22;;;;;;;4.35;1.35;;;15.10;99.90;;;;;;5009973;28;20077;-77
2023/08/31 11:53:47;;;;;;;7.45;2.08;;;15.30;99.90;;;;;;5009164;28;20080;-77
2023/08/31 11:56:13;;;;;;;9.55;2.42;;;15.40;99.90;;;;;;4993281;28;20467;-77
2023/08/31 11:58:42;;;;;;;8.07;1.33;;;15.60;99.90;;;;;;5009659;28;20045;-76
2023/08/31 12:01:08;;;;;;;2.05;0.80;;;15.70;99.90;;;;;;5009511;28;20042;-77
2023/08/31 12:03:44;;;;;;;1.15;0.60;;;15.70;99.90;;;;;;5010257;28;20397;-77
2023/08/31 12:06:10;;;;;;;2.00;0.80;;;15.80;99.90;;;;;;5009381;28;20038;-78
2023/08/31 12:08:37;;;;;;;2.63;0.80;;;15.70;99.90;;;;;;5010790;28;20053;-78
2023/08/31 12:11:05;;;;;;;4.38;0.88;;;15.70;99.90;;;;;;5009683;28;20046;-77
2023/08/31 12:13:31;;;;;;;2.92;1.13;;;15.70;99.90;;;;;;5005517;28;20042;-77
2023/08/31 12:15:58;;;;;;;3.85;1.20;;;15.50;99.90;;;;;;5009826;28;20057;-78
2023/08/31 12:18:23;;;;;;;3.70;1.30;;;15.50;99.90;;;;;;5009119;28;20541;-77
2023/08/31 12:20:52;;;;;;;4.38;1.20;;;15.50;99.90;;;;;;5010851;28;20049;-78
2023/08/31 12:23:21;;;;;;;6.05;1.10;;;15.40;99.90;;;;;;5009180;28;20042;-77
2023/08/31 12:25:54;;;;;;;4.32;0.90;;;15.30;99.90;;;;;;5009592;28;20050;-78
2023/08/31 12:28:22;;;;;;;3.08;0.98;;;15.20;99.90;;;;;;5003367;28;20096;-76
2023/08/31 12:30:52;;;;;;;3.97;0.80;;;15.10;99.90;;;;;;5005819;28;20402;-78
2023/08/31 12:33:19;;;;;;;3.10;0.80;;;15.00;99.90;;;;;;5009553;28;20042;-77
2023/08/31 12:35:45;;;;;;;1.95;0.75;;;14.90;99.90;;;;;;5006014;28;20042;-78
2023/08/31 12:38:11;;;;;;;1.52;0.80;;;14.90;99.90;;;;;;5009705;28;20050;-77
2023/08/31 12:40:40;;;;;;;1.85;0.75;;;14.90;99.90;;;;;;5009073;28;20095;-78
2023/08/31 12:43:06;;;;;;;2.35;0.80;;;15.00;99.90;;;;;;5004698;28;20614;-78
2023/08/31 12:45:32;;;;;;;3.13;1.00;;;15.10;99.90;;;;;;5009427;28;20038;-78